Time;durP1;ratioP1;P1;durP2;ratioP2;P2;SDS_P1;SDS_P2;PMS_P1;PMS_P2;Temp;Humidity;BMP_temperature;BMP_pressure;BME280_temperature;BME280_humidity;BME280_pressure;Samples;Min_cycle;Max_cycle;Signal;HPM_P1;HPM_P2
2023/06/21 00:01:30;;;;;;;13.70;10.30;;;20.00;99.90;;;;;;5038096;28;20041;-79
2023/06/21 00:03:57;;;;;;;12.02;10.73;;;20.10;99.90;;;;;;5037024;28;20045;-78
2023/06/21 00:06:23;;;;;;;14.18;10.88;;;20.60;99.90;;;;;;5015876;28;20040;-77
2023/06/21 00:08:49;;;;;;;12.88;10.98;;;20.30;99.90;;;;;;5014828;28;20065;-78
2023/06/21 00:11:15;;;;;;;12.57;10.98;;;20.10;99.90;;;;;;5042664;28;20057;-77
2023/06/21 00:13:40;;;;;;;13.25;11.05;;;19.90;99.90;;;;;;5022543;28;20217;-78
2023/06/21 00:16:06;;;;;;;13.63;11.48;;;20.10;99.90;;;;;;5032699;28;20037;-77
2023/06/21 00:18:32;;;;;;;14.43;11.60;;;20.00;99.90;;;;;;5026904;28;20038;-77
2023/06/21 00:20:59;;;;;;;13.35;11.95;;;20.00;99.90;;;;;;5036276;28;20029;-78
2023/06/21 00:23:25;;;;;;;15.85;11.40;;;20.40;99.90;;;;;;5011381;28;20048;-77
2023/06/21 00:25:51;;;;;;;15.13;11.45;;;20.00;99.90;;;;;;5028905;28;20477;-77
2023/06/21 00:28:16;;;;;;;15.82;12.52;;;20.00;99.90;;;;;;5030692;28;20041;-78
2023/06/21 00:30:42;;;;;;;14.68;12.43;;;20.20;99.90;;;;;;5031934;28;20109;-77
2023/06/21 00:33:07;;;;;;;14.20;12.70;;;20.00;99.90;;;;;;5041894;28;20405;-77
2023/06/21 00:35:33;;;;;;;15.02;12.57;;;19.90;99.90;;;;;;4997297;28;20486;-77
2023/06/21 00:37:59;;;;;;;14.45;12.95;;;19.90;99.90;;;;;;5030878;28;20079;-78
2023/06/21 00:40:25;;;;;;;14.82;13.23;;;19.90;99.90;;;;;;5012429;28;20038;-77
2023/06/21 00:42:54;;;;;;;14.77;13.00;;;19.90;99.90;;;;;;5027280;28;20053;-77
2023/06/21 00:45:20;;;;;;;15.98;14.30;;;19.80;99.90;;;;;;5023778;28;20025;-77
2023/06/21 00:47:46;;;;;;;16.60;14.63;;;19.60;99.90;;;;;;4998297;28;20405;-77
2023/06/21 00:50:13;;;;;;;17.75;15.07;;;19.70;99.90;;;;;;5031561;28;20037;-77
2023/06/21 00:52:42;;;;;;;18.17;15.68;;;19.70;99.90;;;;;;5047601;28;20048;-77
2023/06/21 00:55:08;;;;;;;18.63;15.52;;;19.70;99.90;;;;;;5019310;28;20133;-77
2023/06/21 00:57:34;;;;;;;21.02;16.15;;;19.60;99.90;;;;;;5019936;28;20132;-77
2023/06/21 01:00:00;;;;;;;23.08;16.52;;;19.60;99.90;;;;;;5015240;28;20120;-77
2023/06/21 01:02:26;;;;;;;19.30;16.90;;;19.60;99.90;;;;;;5004497;28;20577;-77
2023/06/21 01:04:52;;;;;;;21.40;17.63;;;19.50;99.90;;;;;;5021651;28;20042;-77
2023/06/21 01:07:27;;;;;;;20.35;17.25;;;20.40;99.90;;;;;;5028373;28;20409;-77
2023/06/21 01:10:16;;;;;;;21.15;18.05;;;19.60;99.90;;;;;;5005281;28;20034;-77
2023/06/21 01:13:06;;;;;;;19.55;17.45;;;19.50;99.90;;;;;;5016936;28;20139;-77
2023/06/21 01:15:40;;;;;;;23.55;19.08;;;19.50;99.90;;;;;;5017122;28;20056;-77
2023/06/21 01:18:07;;;;;;;21.92;19.50;;;19.70;99.90;;;;;;5023792;28;20505;-77
2023/06/21 01:20:36;;;;;;;22.52;19.45;;;19.60;99.90;;;;;;5037829;28;20163;-77
2023/06/21 01:23:39;;;;;;;21.52;19.23;;;19.50;99.90;;;;;;5043475;28;20054;-77
2023/06/21 01:26:15;;;;;;;23.00;20.45;;;19.50;99.90;;;;;;5023727;28;20131;-77
2023/06/21 01:29:04;;;;;;;22.17;19.55;;;19.40;99.90;;;;;;5006704;28;20134;-77
2023/06/21 01:31:31;;;;;;;22.88;20.45;;;19.50;99.90;;;;;;5039773;28;20624;-77
2023/06/21 01:33:59;;;;;;;22.88;20.38;;;19.60;99.90;;;;;;5016472;28;20171;-77
2023/06/21 01:36:25;;;;;;;22.70;19.60;;;19.40;99.90;;;;;;5015713;28;20132;-77
2023/06/21 01:38:55;;;;;;;24.58;21.20;;;19.40;99.90;;;;;;5013220;28;20072;-77
2023/06/21 01:41:21;;;;;;;23.48;20.73;;;20.20;99.90;;;;;;5019337;28;20478;-76
2023/06/21 01:43:47;;;;;;;25.73;21.30;;;19.40;99.90;;;;;;5019171;28;20156;-77
2023/06/21 01:46:14;;;;;;;27.05;20.85;;;19.40;99.90;;;;;;5033458;28;20061;-77
2023/06/21 01:48:41;;;;;;;25.58;22.38;;;19.50;99.90;;;;;;5009803;28;20046;-76
2023/06/21 01:51:08;;;;;;;25.27;20.92;;;19.30;99.90;;;;;;5022085;28;20093;-77
2023/06/21 01:53:34;;;;;;;26.70;21.20;;;19.50;99.90;;;;;;4994651;28;20080;-77
2023/06/21 01:56:03;;;;;;;25.52;22.65;;;19.30;99.90;;;;;;5052694;28;20045;-78
2023/06/21 01:58:28;;;;;;;30.65;24.27;;;19.30;99.90;;;;;;5009190;28;20054;-77
2023/06/21 02:00:56;;;;;;;28.63;24.85;;;19.30;99.90;;;;;;5022697;28;20121;-77
2023/06/21 02:03:23;;;;;;;30.15;24.90;;;19.30;99.90;;;;;;5022662;28;20046;-77
2023/06/21 02:05:50;;;;;;;32.70;25.63;;;19.30;99.90;;;;;;5006030;28;20133;-77
2023/06/21 02:08:16;;;;;;;31.02;26.73;;;19.30;99.90;;;;;;5045752;28;20033;-77
2023/06/21 02:10:44;;;;;;;30.83;26.77;;;19.20;99.90;;;;;;5017077;28;20752;-77
2023/06/21 02:13:10;;;;;;;32.08;26.73;;;19.20;99.90;;;;;;5034755;28;20048;-77
2023/06/21 02:15:38;;;;;;;32.95;26.48;;;19.60;99.90;;;;;;5010070;28;20125;-78
2023/06/21 02:18:03;;;;;;;30.75;26.65;;;19.70;99.90;;;;;;5008383;28;20068;-78
2023/06/21 02:20:29;;;;;;;35.88;28.10;;;19.20;99.90;;;;;;5007055;28;20505;-77
2023/06/21 02:22:55;;;;;;;32.92;27.30;;;19.10;99.90;;;;;;5010421;28;20119;-77
2023/06/21 02:25:21;;;;;;;31.17;26.75;;;19.20;99.90;;;;;;5043290;28;20120;-77
2023/06/21 02:27:47;;;;;;;34.20;27.23;;;19.10;99.90;;;;;;5014314;28;20037;-77
2023/06/21 02:30:13;;;;;;;35.80;27.95;;;19.10;99.90;;;;;;5016613;28;20531;-77
2023/06/21 02:32:39;;;;;;;32.42;26.50;;;19.10;99.90;;;;;;5029862;28;20033;-77
2023/06/21 02:35:05;;;;;;;36.45;28.33;;;19.10;99.90;;;;;;5003575;28;20398;-77
2023/06/21 02:37:31;;;;;;;35.08;27.38;;;19.00;99.90;;;;;;4987417;28;20045;-77
2023/06/21 02:39:57;;;;;;;33.22;27.25;;;19.40;99.90;;;;;;5013530;28;20056;-77
2023/06/21 02:42:26;;;;;;;35.42;28.48;;;19.00;99.90;;;;;;4996974;28;20088;-78
2023/06/21 02:44:52;;;;;;;33.10;27.98;;;18.90;99.90;;;;;;4996198;28;20064;-77
2023/06/21 02:47:18;;;;;;;34.97;28.42;;;18.80;99.90;;;;;;5013098;28;20033;-78
2023/06/21 02:49:44;;;;;;;34.20;28.80;;;18.90;99.90;;;;;;4999551;28;20521;-78
2023/06/21 02:52:09;;;;;;;34.58;28.08;;;18.90;99.90;;;;;;5006668;28;20073;-78
2023/06/21 02:54:35;;;;;;;35.85;28.88;;;18.90;99.90;;;;;;4999424;28;20045;-77
2023/06/21 02:57:01;;;;;;;37.38;29.15;;;18.80;99.90;;;;;;5010865;28;20045;-78
2023/06/21 02:59:29;;;;;;;32.30;27.10;;;19.30;99.90;;;;;;5028543;28;20409;-77
2023/06/21 03:01:59;;;;;;;37.05;29.48;;;18.80;99.90;;;;;;5034980;28;20025;-78
2023/06/21 03:04:25;;;;;;;32.53;28.45;;;18.80;99.90;;;;;;5005219;28;20120;-78
2023/06/21 03:06:50;;;;;;;36.05;29.00;;;19.70;99.90;;;;;;5029703;28;20064;-78
2023/06/21 03:09:16;;;;;;;35.28;28.67;;;19.00;99.90;;;;;;5017099;28;20091;-78
2023/06/21 03:11:42;;;;;;;38.50;30.92;;;18.80;99.90;;;;;;5016546;28;20095;-78
2023/06/21 03:14:08;;;;;;;37.30;31.08;;;19.50;99.90;;;;;;5000557;28;20037;-77
2023/06/21 03:16:33;;;;;;;37.42;30.85;;;18.90;99.90;;;;;;5004106;28;20378;-78
2023/06/21 03:18:59;;;;;;;38.97;30.50;;;18.70;99.90;;;;;;5029218;28;20049;-78
2023/06/21 03:21:25;;;;;;;42.33;31.30;;;18.90;99.90;;;;;;5016464;28;20392;-77
2023/06/21 03:23:50;;;;;;;36.35;30.48;;;19.10;99.90;;;;;;5027427;28;20127;-77
2023/06/21 03:26:16;;;;;;;37.53;30.50;;;18.70;99.90;;;;;;5000012;28;20740;-78
2023/06/21 03:28:42;;;;;;;35.58;29.00;;;19.50;99.90;;;;;;5027917;28;20048;-77
2023/06/21 03:31:07;;;;;;;37.35;29.63;;;18.70;99.90;;;;;;5005989;28;20037;-78
2023/06/21 03:33:33;;;;;;;38.47;31.27;;;19.50;99.90;;;;;;5051363;28;20037;-77
2023/06/21 03:35:59;;;;;;;36.67;29.83;;;19.60;99.90;;;;;;5032719;28;20689;-78
2023/06/21 03:38:25;;;;;;;36.83;31.35;;;19.50;99.90;;;;;;5013298;28;20033;-77
2023/06/21 03:40:50;;;;;;;38.63;31.23;;;18.60;99.90;;;;;;5015298;28;20044;-77
2023/06/21 03:43:16;;;;;;;38.03;31.30;;;18.60;99.90;;;;;;5000040;28;20038;-78
2023/06/21 03:45:43;;;;;;;37.70;30.98;;;18.90;99.90;;;;;;5011809;28;20073;-77
2023/06/21 03:48:08;;;;;;;34.90;29.95;;;19.10;99.90;;;;;;5031522;28;20029;-77
2023/06/21 03:50:34;;;;;;;36.72;32.10;;;19.00;99.90;;;;;;5000421;28;20095;-77
2023/06/21 03:53:00;;;;;;;38.17;32.00;;;19.00;99.90;;;;;;5037309;28;20097;-78
2023/06/21 03:55:25;;;;;;;38.22;33.03;;;18.70;99.90;;;;;;5024737;28;20037;-77
2023/06/21 03:57:51;;;;;;;42.40;33.22;;;18.80;99.90;;;;;;5035764;28;20045;-77
2023/06/21 04:00:17;;;;;;;40.83;33.03;;;18.90;99.90;;;;;;5024234;28;20045;-77
2023/06/21 04:02:43;;;;;;;38.03;31.83;;;18.60;99.90;;;;;;5001010;28;20033;-77
2023/06/21 04:05:10;;;;;;;42.53;33.40;;;19.40;99.90;;;;;;5016829;28;20034;-77
2023/06/21 04:07:36;;;;;;;41.75;34.63;;;19.30;99.90;;;;;;5021984;28;20037;-77
2023/06/21 04:10:02;;;;;;;42.53;34.70;;;19.20;99.90;;;;;;5038713;28;20072;-77
2023/06/21 04:12:29;;;;;;;43.92;35.38;;;18.70;99.90;;;;;;5009112;28;20073;-77
2023/06/21 04:14:55;;;;;;;44.30;35.53;;;19.20;99.90;;;;;;5041879;28;20452;-77
2023/06/21 04:17:20;;;;;;;43.97;35.22;;;18.70;99.90;;;;;;5029618;28;20091;-77
2023/06/21 04:19:46;;;;;;;45.30;36.78;;;19.30;99.90;;;;;;5040455;28;20488;-77
2023/06/21 04:22:11;;;;;;;43.35;35.80;;;19.20;99.90;;;;;;5033098;28;20044;-77
2023/06/21 04:24:37;;;;;;;46.20;37.17;;;19.20;99.90;;;;;;5035652;22;20064;-73
2023/06/21 04:27:03;;;;;;;46.55;37.70;;;18.70;99.90;;;;;;4995743;28;20041;-73
2023/06/21 04:29:29;;;;;;;46.53;37.58;;;18.70;99.90;;;;;;4980316;28;20104;-73
2023/06/21 04:31:55;;;;;;;46.78;37.00;;;18.60;99.90;;;;;;5002592;28;20049;-73
2023/06/21 04:34:21;;;;;;;48.67;38.78;;;18.60;99.90;;;;;;5010009;28;20038;-73
2023/06/21 04:36:47;;;;;;;48.08;38.00;;;18.70;99.90;;;;;;4992453;28;20471;-73
2023/06/21 04:39:17;;;;;;;52.00;38.97;;;18.70;99.90;;;;;;5007631;28;20468;-73
2023/06/21 04:41:46;;;;;;;47.03;37.85;;;18.70;99.90;;;;;;4983697;28;20417;-73
2023/06/21 04:44:12;;;;;;;49.35;39.05;;;18.70;99.90;;;;;;5011913;28;20073;-73
2023/06/21 04:46:38;;;;;;;51.13;38.53;;;18.70;99.90;;;;;;4996014;28;20052;-73
2023/06/21 04:49:04;;;;;;;52.97;41.03;;;18.70;99.90;;;;;;4988439;28;20046;-73
2023/06/21 04:51:30;;;;;;;51.88;40.60;;;18.70;99.90;;;;;;4986037;28;20513;-73
2023/06/21 04:53:58;;;;;;;49.25;39.15;;;18.70;99.90;;;;;;4982072;28;20045;-74
2023/06/21 04:56:26;;;;;;;51.38;39.67;;;18.70;99.90;;;;;;4992005;28;20042;-73
2023/06/21 04:58:52;;;;;;;52.55;40.85;;;18.80;99.90;;;;;;4990045;28;20050;-73
2023/06/21 05:01:17;;;;;;;50.97;40.13;;;18.80;99.90;;;;;;5005164;28;20510;-73
2023/06/21 05:03:47;;;;;;;51.50;40.55;;;18.80;99.90;;;;;;4993748;28;20041;-73
2023/06/21 05:06:14;;;;;;;52.38;40.60;;;18.80;99.90;;;;;;4996225;28;20518;-73
2023/06/21 05:08:40;;;;;;;53.72;41.03;;;18.80;99.90;;;;;;4995674;28;20045;-73
2023/06/21 05:11:06;;;;;;;49.45;40.10;;;18.80;99.90;;;;;;5010151;28;20041;-73
2023/06/21 05:13:32;;;;;;;51.03;39.38;;;18.90;99.90;;;;;;5004486;28;20418;-73
2023/06/21 05:15:58;;;;;;;50.83;40.10;;;18.90;99.90;;;;;;4990461;28;20046;-73
2023/06/21 05:18:23;;;;;;;51.50;40.40;;;18.90;99.90;;;;;;5005581;28;20113;-73
2023/06/21 05:20:49;;;;;;;50.28;39.50;;;19.00;99.90;;;;;;4988463;28;20052;-74
2023/06/21 05:23:15;;;;;;;54.35;40.05;;;19.00;99.90;;;;;;4992700;28;20444;-74
2023/06/21 05:25:40;;;;;;;52.58;39.40;;;19.10;99.90;;;;;;4990818;28;20042;-75
2023/06/21 05:28:06;;;;;;;54.05;39.22;;;19.10;99.90;;;;;;4986640;28;20489;-74
2023/06/21 05:30:31;;;;;;;50.55;40.85;;;19.10;99.90;;;;;;4993741;28;20042;-74
2023/06/21 05:32:57;;;;;;;49.85;39.42;;;19.10;99.90;;;;;;4987967;28;20557;-74
2023/06/21 05:35:23;;;;;;;55.25;40.00;;;19.10;99.90;;;;;;4994375;28;20096;-74
2023/06/21 05:37:48;;;;;;;50.22;39.17;;;19.20;99.90;;;;;;4992159;28;20042;-74
2023/06/21 05:40:14;;;;;;;54.75;40.97;;;19.20;99.90;;;;;;5003701;28;20042;-74
2023/06/21 05:42:39;;;;;;;50.42;38.50;;;19.20;99.90;;;;;;4989865;28;20086;-74
2023/06/21 05:45:07;;;;;;;50.75;38.50;;;19.20;99.90;;;;;;4982434;28;20464;-74
2023/06/21 05:47:33;;;;;;;52.45;39.38;;;19.20;99.90;;;;;;4995069;28;20050;-74
2023/06/21 05:49:58;;;;;;;49.92;38.90;;;19.20;99.90;;;;;;4987697;28;20156;-74
2023/06/21 05:52:24;;;;;;;50.90;37.75;;;19.30;99.90;;;;;;4995243;28;20037;-73
2023/06/21 05:54:49;;;;;;;52.70;37.90;;;19.30;99.90;;;;;;5006112;28;20096;-73
2023/06/21 05:57:15;;;;;;;46.42;36.35;;;19.40;99.90;;;;;;5008702;28;20043;-73
2023/06/21 05:59:43;;;;;;;48.47;35.97;;;19.40;99.90;;;;;;4984128;28;20042;-73
2023/06/21 06:02:08;;;;;;;44.55;34.72;;;19.40;99.90;;;;;;4992343;28;20042;-73
2023/06/21 06:04:34;;;;;;;41.97;33.88;;;19.50;99.90;;;;;;4988549;28;20186;-75
2023/06/21 06:07:00;;;;;;;46.97;35.75;;;19.50;99.90;;;;;;5010329;28;20253;-74
2023/06/21 06:09:25;;;;;;;43.72;34.28;;;19.60;99.90;;;;;;4991441;28;20565;-74
2023/06/21 06:11:51;;;;;;;45.13;33.13;;;19.60;99.90;;;;;;5015931;28;20040;-74
2023/06/21 06:14:17;;;;;;;43.10;33.63;;;19.60;99.90;;;;;;5013823;28;20042;-74
2023/06/21 06:16:42;;;;;;;44.03;33.83;;;19.70;99.90;;;;;;5011627;28;20046;-74
2023/06/21 06:19:08;;;;;;;41.67;32.92;;;19.70;99.90;;;;;;4990926;28;20073;-74
2023/06/21 06:21:33;;;;;;;46.30;31.77;;;19.70;99.90;;;;;;4993986;28;20045;-74
2023/06/21 06:23:59;;;;;;;41.08;31.27;;;19.80;99.90;;;;;;4991525;28;20112;-73
2023/06/21 06:26:26;;;;;;;43.10;31.88;;;19.80;99.90;;;;;;4986166;28;20052;-73
2023/06/21 06:28:53;;;;;;;40.08;30.70;;;19.80;99.90;;;;;;4988316;28;20145;-73
2023/06/21 06:31:24;;;;;;;39.72;29.20;;;19.80;99.90;;;;;;5004772;28;20077;-72
2023/06/21 06:33:50;;;;;;;36.13;28.35;;;19.90;99.90;;;;;;4971347;28;20037;-73
2023/06/21 06:36:16;;;;;;;36.80;28.83;;;19.90;99.90;;;;;;5007503;28;20026;-73
2023/06/21 06:38:45;;;;;;;37.28;28.77;;;19.90;99.90;;;;;;4989409;28;20029;-72
2023/06/21 06:41:11;;;;;;;34.50;26.58;;;19.90;99.90;;;;;;5004527;28;20034;-72
2023/06/21 06:43:36;;;;;;;36.70;27.75;;;19.90;99.90;;;;;;4990229;28;20064;-75
2023/06/21 06:46:02;;;;;;;35.60;28.23;;;19.90;99.90;;;;;;5005403;28;20073;-73
2023/06/21 06:48:27;;;;;;;34.95;27.42;;;19.90;99.90;;;;;;4991590;28;20046;-73
2023/06/21 06:50:53;;;;;;;32.03;26.23;;;20.00;99.90;;;;;;4984524;28;20046;-73
2023/06/21 06:53:19;;;;;;;33.22;25.77;;;19.90;99.90;;;;;;4989525;28;20398;-73
2023/06/21 06:55:45;;;;;;;32.38;23.95;;;20.00;99.90;;;;;;4990731;28;20037;-72
2023/06/21 06:58:10;;;;;;;34.80;25.42;;;20.00;99.90;;;;;;5008846;28;20041;-73
2023/06/21 07:00:36;;;;;;;29.08;23.73;;;20.00;99.90;;;;;;5010636;28;20168;-73
2023/06/21 07:03:02;;;;;;;30.02;23.88;;;20.00;99.90;;;;;;4991208;28;20095;-72
2023/06/21 07:05:28;;;;;;;31.63;22.85;;;20.00;99.90;;;;;;5003280;28;20056;-73
2023/06/21 07:07:55;;;;;;;29.77;23.20;;;20.10;99.90;;;;;;5004348;28;20044;-73
2023/06/21 07:10:21;;;;;;;29.00;22.48;;;20.00;99.90;;;;;;5008649;28;20035;-72
2023/06/21 07:12:47;;;;;;;26.20;21.05;;;20.10;99.90;;;;;;4991056;28;20133;-72
2023/06/21 07:15:13;;;;;;;25.30;20.27;;;20.20;99.90;;;;;;4990262;28;20045;-72
2023/06/21 07:17:38;;;;;;;28.27;22.23;;;20.20;99.90;;;;;;5009306;28;20489;-72
2023/06/21 07:20:06;;;;;;;24.58;21.02;;;20.20;99.90;;;;;;5000926;28;20042;-72
2023/06/21 07:22:32;;;;;;;25.15;19.85;;;20.30;99.90;;;;;;4997147;28;20101;-72
2023/06/21 07:24:58;;;;;;;24.70;20.30;;;20.30;99.90;;;;;;4978156;28;20408;-72
2023/06/21 07:27:25;;;;;;;22.58;19.23;;;20.30;99.90;;;;;;4985871;28;20041;-72
2023/06/21 07:29:51;;;;;;;22.10;18.73;;;20.30;99.90;;;;;;4986039;28;20048;-72
2023/06/21 07:32:17;;;;;;;21.20;18.52;;;20.40;99.90;;;;;;5006769;28;20042;-72
2023/06/21 07:34:42;;;;;;;23.80;19.30;;;20.40;99.90;;;;;;4997560;28;20513;-72
2023/06/21 07:37:08;;;;;;;23.30;18.67;;;20.40;99.90;;;;;;4994294;28;20461;-72
2023/06/21 07:39:33;;;;;;;25.75;18.85;;;20.50;99.90;;;;;;5005291;28;20052;-72
2023/06/21 07:42:04;;;;;;;22.83;18.05;;;20.50;99.90;;;;;;4991514;28;20116;-72
2023/06/21 07:44:32;;;;;;;22.25;17.58;;;20.50;99.90;;;;;;5011569;28;20041;-73
2023/06/21 07:46:58;;;;;;;20.77;17.73;;;20.60;99.90;;;;;;4993707;28;20034;-72
2023/06/21 07:49:23;;;;;;;20.73;16.70;;;20.70;99.90;;;;;;4991601;28;20030;-72
2023/06/21 07:51:50;;;;;;;20.58;16.90;;;20.70;99.90;;;;;;5007497;28;20034;-72
2023/06/21 07:54:15;;;;;;;23.08;18.33;;;20.80;99.90;;;;;;4985148;28;20494;-72
2023/06/21 07:56:41;;;;;;;20.60;16.17;;;20.90;99.90;;;;;;5002909;28;20045;-72
2023/06/21 07:59:06;;;;;;;20.70;14.93;;;20.90;99.90;;;;;;4990034;28;20042;-73
2023/06/21 08:01:32;;;;;;;20.95;14.77;;;20.90;99.90;;;;;;5007771;28;20049;-73
2023/06/21 08:04:00;;;;;;;19.88;15.85;;;20.90;99.90;;;;;;4979545;28;20073;-72
2023/06/21 08:06:26;;;;;;;21.77;16.70;;;21.00;99.90;;;;;;4985342;28;20042;-72
2023/06/21 08:08:51;;;;;;;21.33;15.88;;;21.10;99.90;;;;;;5009680;28;20030;-72
2023/06/21 08:11:17;;;;;;;19.88;15.30;;;21.10;99.90;;;;;;5003229;28;20565;-72
2023/06/21 08:13:43;;;;;;;16.75;13.88;;;21.20;99.90;;;;;;4998879;28;20117;-72
2023/06/21 08:16:08;;;;;;;20.63;14.25;;;21.30;99.90;;;;;;4989929;28;20146;-72
2023/06/21 08:18:35;;;;;;;21.35;13.48;;;21.40;99.90;;;;;;5004582;28;20041;-72
2023/06/21 08:21:01;;;;;;;18.10;13.43;;;21.50;99.90;;;;;;4989021;28;20096;-72
2023/06/21 08:23:26;;;;;;;15.50;12.73;;;21.60;99.90;;;;;;4986965;28;20121;-72
2023/06/21 08:25:52;;;;;;;15.85;12.48;;;21.70;99.90;;;;;;5006985;28;20498;-72
2023/06/21 08:28:17;;;;;;;17.55;12.07;;;21.80;99.90;;;;;;4981159;28;20053;-73
2023/06/21 08:30:43;;;;;;;14.48;11.32;;;22.10;99.90;;;;;;4984342;28;20065;-72
2023/06/21 08:33:09;;;;;;;18.52;12.48;;;22.40;99.90;;;;;;5007967;28;20030;-72
2023/06/21 08:35:36;;;;;;;17.40;13.70;;;22.60;99.90;;;;;;5005816;28;20531;-72
2023/06/21 08:38:02;;;;;;;16.90;12.35;;;22.70;99.90;;;;;;5002669;28;20038;-72
2023/06/21 08:40:33;;;;;;;16.05;11.93;;;22.70;99.90;;;;;;4987605;28;20069;-72
2023/06/21 08:42:59;;;;;;;15.10;12.23;;;22.60;99.90;;;;;;4981342;28;20405;-72
2023/06/21 08:45:25;;;;;;;15.50;11.60;;;22.70;99.90;;;;;;4987513;28;20096;-72
2023/06/21 08:47:51;;;;;;;12.32;10.70;;;22.90;99.90;;;;;;4983768;28;20121;-72
2023/06/21 08:50:22;;;;;;;13.75;10.93;;;22.90;99.90;;;;;;5006460;28;20125;-72
2023/06/21 08:52:50;;;;;;;14.10;10.05;;;22.90;99.90;;;;;;4985262;28;20041;-72
2023/06/21 08:55:19;;;;;;;13.25;10.82;;;22.90;99.90;;;;;;4988186;28;20257;-72
2023/06/21 08:58:00;;;;;;;14.85;10.63;;;22.80;99.90;;;;;;4987892;28;20053;-72
2023/06/21 09:00:33;;;;;;;12.80;9.15;;;22.90;99.90;;;;;;4988056;28;20044;-72
2023/06/21 09:03:09;;;;;;;12.75;8.70;;;23.10;99.90;;;;;;4984958;28;20371;-72
2023/06/21 09:05:52;;;;;;;14.55;10.88;;;23.40;99.90;;;;;;4986907;28;20042;-73
2023/06/21 09:08:19;;;;;;;11.00;8.00;;;23.70;99.90;;;;;;5004909;28;20037;-72
2023/06/21 09:10:50;;;;;;;9.55;7.65;;;23.80;99.90;;;;;;4984724;28;20375;-72
2023/06/21 09:13:17;;;;;;;10.85;8.18;;;23.90;99.90;;;;;;4982956;28;20478;-73
2023/06/21 09:15:45;;;;;;;10.55;8.43;;;24.10;99.90;;;;;;5003684;28;20053;-72
2023/06/21 09:18:10;;;;;;;10.80;8.98;;;24.40;99.90;;;;;;4990394;28;20525;-73
2023/06/21 09:20:38;;;;;;;12.55;9.07;;;24.60;99.90;;;;;;4980668;28;20073;-73
2023/06/21 09:23:03;;;;;;;6.03;5.30;;;24.60;99.90;;;;;;4979658;28;20092;-73
2023/06/21 09:25:29;;;;;;;8.07;6.22;;;24.40;99.90;;;;;;4997469;28;20038;-73
2023/06/21 09:27:55;;;;;;;8.40;6.43;;;24.20;99.90;;;;;;4990997;28;20089;-73
2023/06/21 09:30:22;;;;;;;8.95;8.00;;;24.20;99.90;;;;;;4992358;28;20487;-73
2023/06/21 09:32:51;;;;;;;9.93;6.10;;;24.30;99.90;;;;;;4983979;28;20526;-74
2023/06/21 09:35:18;;;;;;;7.07;5.10;;;24.20;99.90;;;;;;5002215;28;20054;-74
2023/06/21 09:37:43;;;;;;;8.77;5.80;;;24.00;99.90;;;;;;5002815;28;20502;-74
2023/06/21 09:40:09;;;;;;;8.15;6.10;;;24.00;99.90;;;;;;5003225;28;20257;-73
2023/06/21 09:42:43;;;;;;;8.25;6.45;;;24.30;99.90;;;;;;5001376;28;20046;-73
2023/06/21 09:45:10;;;;;;;9.55;8.05;;;24.60;99.90;;;;;;5016683;28;20470;-73
2023/06/21 09:47:36;;;;;;;11.85;9.25;;;24.60;99.90;;;;;;4993166;28;20398;-73
2023/06/21 09:50:06;;;;;;;7.50;6.38;;;24.40;99.90;;;;;;5002017;28;20026;-73
2023/06/21 09:52:31;;;;;;;6.85;5.30;;;24.50;99.90;;;;;;5000330;28;20069;-73
2023/06/21 09:54:58;;;;;;;6.78;6.00;;;24.70;99.90;;;;;;5000305;28;20069;-73
2023/06/21 09:57:28;;;;;;;9.65;7.05;;;24.70;99.90;;;;;;4986218;28;20081;-74
2023/06/21 09:59:54;;;;;;;9.20;7.20;;;24.60;99.90;;;;;;5007172;28;20049;-73
2023/06/21 10:02:19;;;;;;;9.25;7.70;;;24.50;99.90;;;;;;5000835;28;20174;-74
2023/06/21 10:04:45;;;;;;;9.18;7.68;;;24.40;99.90;;;;;;4999273;28;20034;-73
2023/06/21 10:07:14;;;;;;;8.65;6.40;;;24.10;99.90;;;;;;5003675;28;20141;-73
2023/06/21 10:09:41;;;;;;;8.55;7.65;;;24.00;99.90;;;;;;4998205;28;20046;-74
2023/06/21 10:12:09;;;;;;;9.25;7.70;;;24.00;99.90;;;;;;5005613;28;20125;-74
2023/06/21 10:14:35;;;;;;;9.00;6.63;;;24.20;99.90;;;;;;5000480;28;20081;-74
2023/06/21 10:17:02;;;;;;;10.15;6.97;;;24.40;99.90;;;;;;4992199;28;20092;-74
2023/06/21 10:19:31;;;;;;;7.97;6.30;;;24.40;99.90;;;;;;5010740;28;20067;-73
2023/06/21 10:22:17;;;;;;;7.75;6.20;;;24.40;99.90;;;;;;5004000;28;20540;-73
2023/06/21 10:24:51;;;;;;;10.02;6.63;;;24.60;99.90;;;;;;4982540;28;20442;-73
2023/06/21 10:27:21;;;;;;;7.80;6.40;;;24.80;99.90;;;;;;5000712;28;20473;-73
2023/06/21 10:29:57;;;;;;;7.75;5.75;;;25.20;99.90;;;;;;5002117;28;20041;-73
2023/06/21 10:32:30;;;;;;;10.95;8.00;;;25.50;99.90;;;;;;5011584;28;20556;-73
2023/06/21 10:35:04;;;;;;;8.82;6.80;;;25.80;99.90;;;;;;4981970;28;20502;-73
2023/06/21 10:38:01;;;;;;;9.63;7.47;;;26.20;99.90;;;;;;5006601;28;20050;-73
2023/06/21 10:40:29;;;;;;;9.88;7.53;;;26.30;99.00;;;;;;4985004;28;20108;-73
2023/06/21 10:42:56;;;;;;;9.48;7.05;;;26.40;98.80;;;;;;4997614;28;20046;-73
2023/06/21 10:45:21;;;;;;;10.43;7.85;;;26.50;98.40;;;;;;5009201;28;20038;-73
2023/06/21 10:47:47;;;;;;;7.18;6.32;;;26.50;98.00;;;;;;4983344;28;20097;-73
2023/06/21 10:50:14;;;;;;;9.48;7.22;;;26.80;98.10;;;;;;4993181;28;20034;-73
2023/06/21 10:52:39;;;;;;;47.05;10.02;;;27.10;97.60;;;;;;4986348;28;20042;-73
2023/06/21 10:55:05;;;;;;;;;;;27.30;97.20;;;;;;5001018;28;20041;-77
2023/06/21 10:57:34;;;;;;;17.60;8.05;;;27.40;95.70;;;;;;4987432;28;19921;-77
2023/06/21 11:00:02;;;;;;;9.48;7.43;;;27.50;96.90;;;;;;4986341;28;20047;-77
2023/06/21 11:02:28;;;;;;;10.07;7.60;;;27.40;95.80;;;;;;4986347;28;20397;-77
2023/06/21 11:05:16;;;;;;;9.90;7.40;;;27.40;95.60;;;;;;5004065;28;20486;-77
2023/06/21 11:07:56;;;;;;;8.00;7.05;;;27.40;94.50;;;;;;4984587;28;20057;-77
2023/06/21 11:10:43;;;;;;;8.68;7.32;;;27.40;94.70;;;;;;5001767;28;20050;-77
2023/06/21 11:13:11;;;;;;;8.88;6.85;;;27.30;94.20;;;;;;4999082;28;20042;-77
2023/06/21 11:15:41;;;;;;;8.35;7.13;;;27.10;94.50;;;;;;4980294;28;20514;-77
2023/06/21 11:18:09;;;;;;;8.80;7.20;;;26.90;93.80;;;;;;5004511;28;20503;-77
2023/06/21 11:20:57;;;;;;;9.05;7.50;;;26.60;93.90;;;;;;4986075;28;20038;-76
2023/06/21 11:23:23;;;;;;;7.47;6.20;;;26.40;94.40;;;;;;4987802;28;20497;-77
2023/06/21 11:25:50;;;;;;;10.20;6.97;;;26.20;94.90;;;;;;5002361;28;20109;-77
2023/06/21 11:28:19;;;;;;;8.35;6.72;;;26.20;95.10;;;;;;4998808;28;20103;-76
2023/06/21 11:31:03;;;;;;;9.80;7.43;;;26.20;94.90;;;;;;4973235;28;20121;-76
2023/06/21 11:33:31;;;;;;;9.63;7.75;;;26.00;94.40;;;;;;5005373;28;20395;-76
2023/06/21 11:36:04;;;;;;;8.38;7.20;;;26.00;94.60;;;;;;4967710;28;20064;-77
2023/06/21 11:38:30;;;;;;;8.70;6.70;;;25.80;94.20;;;;;;4983067;28;20054;-76
2023/06/21 11:40:59;;;;;;;10.48;8.35;;;25.70;94.30;;;;;;4982061;28;20403;-77
2023/06/21 11:43:26;;;;;;;10.80;7.25;;;25.50;94.50;;;;;;4982268;28;20129;-77
2023/06/21 11:46:03;;;;;;;9.73;7.22;;;25.60;95.20;;;;;;5004683;28;20322;-77
2023/06/21 11:48:29;;;;;;;10.18;8.73;;;25.60;94.90;;;;;;4999059;28;20073;-77
2023/06/21 11:51:07;;;;;;;9.55;8.45;;;25.70;94.70;;;;;;5000097;28;20065;-76
2023/06/21 11:53:40;;;;;;;10.15;8.00;;;25.70;95.20;;;;;;4981645;28;20104;-76
2023/06/21 11:56:13;;;;;;;9.63;8.38;;;25.80;95.00;;;;;;4997744;28;20038;-76
2023/06/21 11:58:39;;;;;;;8.15;7.35;;;26.00;95.10;;;;;;5003228;28;20046;-76
2023/06/21 12:01:07;;;;;;;10.70;7.18;;;26.10;94.60;;;;;;5000177;28;20387;-76
2023/06/21 12:03:32;;;;;;;11.18;8.07;;;26.00;94.50;;;;;;4984725;28;20052;-76
2023/06/21 12:06:02;;;;;;;10.15;8.30;;;25.80;94.40;;;;;;4994110;28;20046;-76
2023/06/21 12:08:30;;;;;;;12.88;7.70;;;25.80;94.30;;;;;;4994065;28;20042;-76
2023/06/21 12:11:07;;;;;;;10.50;6.63;;;25.90;94.80;;;;;;4995443;28;20034;-77
2023/06/21 12:13:35;;;;;;;8.85;4.78;;;26.20;94.50;;;;;;5042072;22;20422;-80
2023/06/21 12:16:03;;;;;;;5.53;4.70;;;26.40;93.80;;;;;;5020826;28;20033;-80
2023/06/21 12:18:32;;;;;;;9.60;4.82;;;26.50;93.60;;;;;;5002919;28;20088;-81
2023/06/21 12:21:04;;;;;;;7.70;5.68;;;26.40;93.10;;;;;;5018291;28;20049;-80
2023/06/21 12:23:30;;;;;;;7.45;5.50;;;26.50;93.10;;;;;;4990861;28;20091;-80
2023/06/21 12:26:05;;;;;;;7.70;5.35;;;26.60;93.20;;;;;;4986662;28;20038;-80
2023/06/21 12:28:32;;;;;;;;;;;26.80;92.60;;;;;;4990964;28;20230;-80
2023/06/21 12:37:42;;;;;;;;;;;27.00;91.50;;;;;;5028983;28;20014;-80
2023/06/21 12:40:08;;;;;;;;;;;27.10;91.80;;;;;;4995607;28;19916;-80
2023/06/21 12:49:18;;;;;;;;;;;27.70;90.50;;;;;;5029816;28;20036;-80